Time;durP1;ratioP1;P1;durP2;ratioP2;P2;SDS_P1;SDS_P2;PMS_P1;PMS_P2;Temp;Humidity;BMP_temperature;BMP_pressure;BME280_temperature;BME280_humidity;BME280_pressure;Samples;Min_cycle;Max_cycle;Signal;HPM_P1;HPM_P2
2024/01/02 00:01:34;;;;;;;4.00;1.70;;;8.00;99.90;;;;;;5015564;28;20186;-72
2024/01/02 00:04:00;;;;;;;2.50;1.57;;;8.00;99.90;;;;;;5034139;28;20432;-75
2024/01/02 00:06:25;;;;;;;4.33;1.67;;;8.00;99.90;;;;;;5030297;28;20794;-75
2024/01/02 00:08:51;;;;;;;5.70;1.50;;;8.00;99.90;;;;;;5034337;28;20182;-72
2024/01/02 00:11:17;;;;;;;5.80;2.20;;;8.00;99.90;;;;;;5033162;28;20217;-72
2024/01/02 00:13:42;;;;;;;4.13;1.63;;;8.00;99.90;;;;;;5033641;28;20186;-73
2024/01/02 00:16:08;;;;;;;3.90;1.27;;;8.00;99.90;;;;;;5032604;28;20212;-75
2024/01/02 00:18:34;;;;;;;5.30;1.80;;;7.90;99.90;;;;;;5033331;28;20627;-75
2024/01/02 00:21:00;;;;;;;3.70;1.30;;;7.90;99.90;;;;;;5033358;28;20178;-74
2024/01/02 00:23:25;;;;;;;2.63;1.40;;;7.90;99.90;;;;;;5032296;28;20466;-76
2024/01/02 00:25:51;;;;;;;5.07;1.93;;;7.90;99.90;;;;;;5033651;28;20236;-76
2024/01/02 00:28:18;;;;;;;3.57;1.13;;;7.90;99.90;;;;;;5032997;28;20449;-75
2024/01/02 00:30:44;;;;;;;2.87;1.90;;;7.80;99.90;;;;;;5032881;28;20246;-73
2024/01/02 00:33:10;;;;;;;5.23;2.27;;;7.80;99.90;;;;;;5033246;28;21013;-73
2024/01/02 00:35:36;;;;;;;2.87;1.30;;;7.90;99.90;;;;;;5032314;28;20523;-74
2024/01/02 00:38:03;;;;;;;2.90;1.40;;;7.80;99.90;;;;;;5032910;28;21131;-75
2024/01/02 00:40:29;;;;;;;4.17;1.47;;;7.80;99.90;;;;;;5032654;28;20436;-72
2024/01/02 00:42:55;;;;;;;3.50;1.00;;;7.80;99.90;;;;;;5033258;28;20508;-73
2024/01/02 00:45:21;;;;;;;4.00;1.23;;;7.80;99.90;;;;;;5032221;28;20540;-73
2024/01/02 00:47:47;;;;;;;2.93;1.53;;;7.80;99.90;;;;;;5032675;28;20519;-75
2024/01/02 00:50:13;;;;;;;5.37;1.77;;;7.80;99.90;;;;;;5032409;28;20402;-72
2024/01/02 00:52:39;;;;;;;5.00;1.53;;;7.80;99.90;;;;;;5033175;28;20440;-75
2024/01/02 00:55:05;;;;;;;5.63;1.73;;;7.80;99.90;;;;;;5014465;28;20190;-74
2024/01/02 00:57:31;;;;;;;2.07;1.83;;;7.90;99.90;;;;;;5030917;28;20186;-75
2024/01/02 01:00:00;;;;;;;2.17;1.23;;;7.80;99.90;;;;;;5014623;28;20440;-74
2024/01/02 01:02:26;;;;;;;5.67;1.83;;;7.80;99.90;;;;;;5032523;28;21142;-76
2024/01/02 01:04:51;;;;;;;1.27;0.90;;;7.90;99.90;;;;;;5031797;28;20498;-75
2024/01/02 01:07:17;;;;;;;5.20;1.70;;;7.80;99.90;;;;;;5014267;28;20464;-74
2024/01/02 01:09:43;;;;;;;2.17;1.10;;;7.90;99.90;;;;;;5032529;28;20214;-74
2024/01/02 01:12:09;;;;;;;2.33;0.90;;;7.90;99.90;;;;;;5032311;28;20272;-73
2024/01/02 01:14:35;;;;;;;2.37;1.00;;;7.90;99.90;;;;;;5032335;28;20237;-72
2024/01/02 01:17:01;;;;;;;3.63;1.30;;;7.90;99.90;;;;;;5032342;28;20447;-75
2024/01/02 01:19:27;;;;;;;1.90;0.83;;;7.90;99.90;;;;;;5032804;28;20565;-73
2024/01/02 01:21:53;;;;;;;7.00;2.00;;;7.90;99.90;;;;;;5036549;28;20417;-72
2024/01/02 01:24:18;;;;;;;4.80;1.27;;;7.90;99.90;;;;;;5036588;28;20544;-72
2024/01/02 01:26:45;;;;;;;1.40;0.93;;;8.00;99.90;;;;;;5036308;28;21760;-74
2024/01/02 01:29:12;;;;;;;5.03;1.30;;;7.90;99.90;;;;;;5018716;28;20186;-76
2024/01/02 01:31:38;;;;;;;3.80;1.40;;;7.90;99.90;;;;;;5035484;28;20501;-73
2024/01/02 01:34:04;;;;;;;1.90;1.17;;;7.90;99.90;;;;;;5035869;28;20429;-74
2024/01/02 01:36:29;;;;;;;3.50;1.30;;;7.90;99.90;;;;;;5036152;28;20434;-72
2024/01/02 01:38:55;;;;;;;3.13;1.13;;;7.90;99.90;;;;;;5035497;28;20417;-76
2024/01/02 01:41:21;;;;;;;2.47;1.07;;;7.90;99.90;;;;;;5036393;28;20178;-74
2024/01/02 01:43:47;;;;;;;2.57;0.97;;;7.90;99.90;;;;;;5035589;28;20232;-73
2024/01/02 01:46:14;;;;;;;2.00;1.00;;;7.90;99.90;;;;;;5035467;28;20548;-76
2024/01/02 01:48:40;;;;;;;4.07;1.20;;;7.90;99.90;;;;;;5036162;28;20192;-75
2024/01/02 01:51:07;;;;;;;2.20;1.13;;;7.90;99.90;;;;;;5035332;28;21147;-73
2024/01/02 01:53:33;;;;;;;2.70;1.00;;;7.90;99.90;;;;;;5034357;28;20472;-73
2024/01/02 01:55:59;;;;;;;1.73;1.03;;;7.90;99.90;;;;;;5034762;28;20456;-74
2024/01/02 01:58:27;;;;;;;2.77;1.00;;;7.90;99.90;;;;;;5035331;28;20489;-73
2024/01/02 02:00:52;;;;;;;2.23;1.20;;;7.90;99.90;;;;;;5034462;28;20444;-73
2024/01/02 02:03:19;;;;;;;2.20;1.43;;;7.90;99.90;;;;;;5036308;28;20429;-77
2024/01/02 02:05:45;;;;;;;2.53;1.47;;;7.90;99.90;;;;;;5035284;28;20559;-76
2024/01/02 02:08:11;;;;;;;4.17;1.30;;;7.90;99.90;;;;;;5035822;28;20440;-76
2024/01/02 02:10:37;;;;;;;3.20;1.83;;;7.90;99.90;;;;;;5034586;28;21031;-74
2024/01/02 02:13:03;;;;;;;2.70;1.70;;;7.90;99.90;;;;;;5035413;28;20421;-74
2024/01/02 02:15:29;;;;;;;4.00;1.60;;;8.00;99.90;;;;;;5035219;28;20192;-75
2024/01/02 02:17:54;;;;;;;3.80;2.40;;;7.90;99.90;;;;;;5034631;28;20452;-76
2024/01/02 02:20:20;;;;;;;3.40;1.87;;;7.90;99.90;;;;;;5034313;28;20679;-76
2024/01/02 02:22:50;;;;;;;2.60;1.30;;;7.90;99.90;;;;;;5034487;28;20213;-75
2024/01/02 02:25:16;;;;;;;3.10;1.20;;;7.90;99.90;;;;;;5034785;28;20194;-74
2024/01/02 02:27:42;;;;;;;1.43;1.03;;;7.90;99.90;;;;;;5034314;28;20417;-73
2024/01/02 02:30:09;;;;;;;2.00;1.43;;;7.90;99.90;;;;;;5034460;28;20482;-74
2024/01/02 02:32:34;;;;;;;2.37;0.87;;;7.90;99.90;;;;;;5034388;28;20515;-74
2024/01/02 02:35:00;;;;;;;2.27;1.63;;;7.90;99.90;;;;;;5032550;28;20476;-75
2024/01/02 02:37:26;;;;;;;0.80;0.70;;;7.90;99.90;;;;;;5034595;28;20198;-74
2024/01/02 02:39:51;;;;;;;1.27;0.90;;;7.90;99.90;;;;;;5035005;28;20208;-75
2024/01/02 02:42:17;;;;;;;1.53;0.57;;;7.90;99.90;;;;;;5034141;28;20196;-73
2024/01/02 02:44:43;;;;;;;1.10;0.70;;;7.90;99.90;;;;;;5034068;28;20567;-75
2024/01/02 02:47:09;;;;;;;1.30;0.60;;;7.80;99.90;;;;;;5034452;28;20173;-73
2024/01/02 02:49:39;;;;;;;3.20;0.70;;;7.90;99.90;;;;;;5034844;28;20724;-72
2024/01/02 02:52:06;;;;;;;1.47;0.60;;;7.90;99.90;;;;;;5033695;28;20425;-77
2024/01/02 02:54:31;;;;;;;1.97;0.80;;;7.90;99.90;;;;;;5017048;28;20436;-75
2024/01/02 02:56:57;;;;;;;0.50;0.43;;;7.90;99.90;;;;;;5032794;28;20459;-74
2024/01/02 02:59:23;;;;;;;1.37;0.40;;;7.80;99.90;;;;;;5035406;28;20198;-75
2024/01/02 03:01:49;;;;;;;0.70;0.50;;;7.80;99.90;;;;;;5033674;28;20239;-72
2024/01/02 03:04:14;;;;;;;1.70;0.60;;;7.80;99.90;;;;;;5033960;28;20836;-74
2024/01/02 03:06:40;;;;;;;1.93;0.83;;;7.80;99.90;;;;;;5034320;28;20190;-75
2024/01/02 03:09:06;;;;;;;3.50;0.70;;;7.80;99.90;;;;;;5034467;28;20206;-76
2024/01/02 03:11:32;;;;;;;1.70;0.60;;;7.70;99.90;;;;;;5034142;28;20228;-72
2024/01/02 03:13:57;;;;;;;1.30;1.10;;;7.70;99.90;;;;;;5033763;28;20470;-75
2024/01/02 03:16:24;;;;;;;1.03;0.70;;;7.70;99.90;;;;;;5034364;28;20965;-73
2024/01/02 03:18:50;;;;;;;1.77;0.40;;;7.70;99.90;;;;;;5034169;28;20184;-73
2024/01/02 03:21:16;;;;;;;0.93;0.47;;;7.70;99.90;;;;;;5034005;28;20429;-73
2024/01/02 03:23:42;;;;;;;0.60;0.40;;;7.70;99.90;;;;;;5034841;28;20516;-71
2024/01/02 03:26:11;;;;;;;0.90;0.50;;;7.70;99.90;;;;;;5015875;28;20213;-73
2024/01/02 03:28:37;;;;;;;0.90;0.40;;;7.70;99.90;;;;;;5034362;28;20190;-73
2024/01/02 03:31:05;;;;;;;0.70;0.40;;;7.70;99.90;;;;;;5030531;28;20484;-76
2024/01/02 03:33:31;;;;;;;1.10;0.40;;;7.60;99.90;;;;;;5034257;28;20471;-73
2024/01/02 03:35:57;;;;;;;0.50;0.30;;;7.60;99.90;;;;;;5033202;28;21231;-76
2024/01/02 03:38:23;;;;;;;0.50;0.30;;;7.60;99.90;;;;;;5034515;28;20433;-74
2024/01/02 03:40:50;;;;;;;0.40;0.30;;;7.70;99.90;;;;;;5032842;28;20918;-77
2024/01/02 03:43:15;;;;;;;0.50;0.33;;;7.70;99.90;;;;;;5033419;28;20185;-73
2024/01/02 03:45:41;;;;;;;1.07;0.37;;;7.70;99.90;;;;;;5033956;28;20424;-76
2024/01/02 03:48:07;;;;;;;1.30;0.47;;;7.70;99.90;;;;;;5033674;28;20209;-75
2024/01/02 03:50:33;;;;;;;0.50;0.30;;;7.70;99.90;;;;;;5032694;28;20264;-77
2024/01/02 03:52:59;;;;;;;0.40;0.30;;;7.70;99.90;;;;;;5033611;28;20447;-75
2024/01/02 03:55:24;;;;;;;0.70;0.30;;;7.70;99.90;;;;;;5034062;28;20190;-73
2024/01/02 03:57:50;;;;;;;0.97;0.30;;;7.70;99.90;;;;;;5033265;28;20182;-76
2024/01/02 04:00:16;;;;;;;0.90;0.40;;;7.70;99.90;;;;;;5034126;28;20644;-75
2024/01/02 04:02:42;;;;;;;1.27;0.40;;;7.70;99.90;;;;;;5015437;28;20643;-76
2024/01/02 04:05:08;;;;;;;0.60;0.40;;;7.80;99.90;;;;;;5033324;28;20429;-74
2024/01/02 04:07:33;;;;;;;0.60;0.30;;;7.80;99.90;;;;;;5033030;28;20186;-72
2024/01/02 04:09:59;;;;;;;0.40;0.30;;;7.80;99.90;;;;;;5033294;28;20939;-75
2024/01/02 04:12:25;;;;;;;0.40;0.33;;;7.80;99.90;;;;;;5033834;28;20186;-76
2024/01/02 04:14:50;;;;;;;0.80;0.30;;;7.90;99.90;;;;;;5033004;28;20239;-74
2024/01/02 04:17:16;;;;;;;1.43;0.30;;;7.80;99.90;;;;;;5016316;28;20264;-74
2024/01/02 04:19:42;;;;;;;0.67;0.30;;;7.90;99.90;;;;;;5034383;28;20212;-76
2024/01/02 04:22:08;;;;;;;3.13;0.50;;;7.80;99.90;;;;;;5034291;28;20182;-77
2024/01/02 04:24:33;;;;;;;1.17;0.50;;;7.80;99.90;;;;;;5033645;28;20273;-77
2024/01/02 04:26:59;;;;;;;1.03;0.40;;;7.90;99.90;;;;;;5033726;28;20225;-73
2024/01/02 04:29:25;;;;;;;0.80;0.40;;;7.90;99.90;;;;;;5034522;28;20206;-75
2024/01/02 04:31:50;;;;;;;0.50;0.30;;;7.90;99.90;;;;;;5030951;28;20196;-77
2024/01/02 04:34:16;;;;;;;0.87;0.40;;;7.90;99.90;;;;;;5033990;28;20190;-76
2024/01/02 04:36:43;;;;;;;0.90;0.53;;;7.90;99.90;;;;;;5014710;28;20620;-73
2024/01/02 04:39:09;;;;;;;0.50;0.30;;;7.90;99.90;;;;;;5034654;28;20182;-76
2024/01/02 04:41:34;;;;;;;0.53;0.40;;;7.90;99.90;;;;;;5015985;28;20452;-75
2024/01/02 04:44:00;;;;;;;0.60;0.30;;;7.90;99.90;;;;;;5034597;28;20178;-76
2024/01/02 04:46:29;;;;;;;0.80;0.40;;;7.90;99.90;;;;;;5034643;28;20198;-74
2024/01/02 04:48:55;;;;;;;0.50;0.30;;;7.80;99.90;;;;;;5033941;28;20182;-75
2024/01/02 04:51:21;;;;;;;0.93;0.50;;;7.90;99.90;;;;;;5032279;28;20494;-75
2024/01/02 04:53:47;;;;;;;0.40;0.30;;;7.90;99.90;;;;;;5034176;28;20425;-73
2024/01/02 04:56:12;;;;;;;1.43;0.30;;;7.80;99.90;;;;;;5038827;28;20256;-73
2024/01/02 04:58:38;;;;;;;0.60;0.47;;;7.90;99.90;;;;;;5038749;28;20189;-75
2024/01/02 05:01:05;;;;;;;1.27;0.40;;;7.90;99.90;;;;;;5020295;28;20190;-75
2024/01/02 05:03:30;;;;;;;0.60;0.30;;;7.90;99.90;;;;;;5038808;28;20656;-76
2024/01/02 05:05:57;;;;;;;1.13;0.60;;;7.90;99.90;;;;;;5034913;28;21290;-74
2024/01/02 05:08:22;;;;;;;0.40;0.30;;;8.00;99.90;;;;;;5038905;28;20221;-73
2024/01/02 05:10:48;;;;;;;0.40;0.30;;;8.00;99.90;;;;;;5037781;28;21666;-73
2024/01/02 05:13:14;;;;;;;0.40;0.30;;;8.00;99.90;;;;;;5020596;28;20183;-75
2024/01/02 05:15:40;;;;;;;1.10;0.30;;;8.00;99.90;;;;;;5019342;28;20220;-75
2024/01/02 05:18:06;;;;;;;0.50;0.30;;;8.00;99.90;;;;;;5038164;28;20202;-72
2024/01/02 05:20:32;;;;;;;1.13;0.30;;;8.00;99.90;;;;;;5020346;28;20435;-73
2024/01/02 05:23:03;;;;;;;0.40;0.30;;;8.00;99.90;;;;;;5037122;28;20189;-75
2024/01/02 05:25:31;;;;;;;0.50;0.40;;;8.10;99.90;;;;;;5037717;28;20272;-75
2024/01/02 05:27:57;;;;;;;0.47;0.30;;;8.10;99.90;;;;;;5037111;28;21001;-74
2024/01/02 05:30:23;;;;;;;0.67;0.30;;;8.10;99.90;;;;;;5038063;28;20476;-75
2024/01/02 05:32:49;;;;;;;0.77;0.33;;;8.10;99.90;;;;;;5036274;28;20468;-77
2024/01/02 05:35:15;;;;;;;0.50;0.30;;;8.20;99.90;;;;;;5037498;28;20421;-76
2024/01/02 05:37:41;;;;;;;0.40;0.30;;;8.20;99.90;;;;;;5036626;28;20430;-73
2024/01/02 05:40:09;;;;;;;0.57;0.30;;;8.20;99.90;;;;;;5037059;28;20229;-74
2024/01/02 05:42:35;;;;;;;0.70;0.30;;;8.20;99.90;;;;;;5032964;28;20186;-73
2024/01/02 05:45:01;;;;;;;0.40;0.30;;;8.20;99.90;;;;;;5032854;28;20437;-72
2024/01/02 05:47:26;;;;;;;0.50;0.20;;;8.30;99.90;;;;;;5036175;28;20467;-76
2024/01/02 05:49:52;;;;;;;0.40;0.30;;;8.30;99.90;;;;;;5035279;28;20224;-74
2024/01/02 05:52:18;;;;;;;0.50;0.30;;;8.30;99.90;;;;;;5035746;28;20190;-74
2024/01/02 05:54:43;;;;;;;0.50;0.30;;;8.30;99.90;;;;;;5033873;28;20233;-73
2024/01/02 05:57:11;;;;;;;0.40;0.20;;;8.30;99.90;;;;;;5035555;28;20243;-75
2024/01/02 05:59:36;;;;;;;0.70;0.40;;;8.40;99.90;;;;;;5035207;28;20187;-72
2024/01/02 06:02:02;;;;;;;0.40;0.30;;;8.40;99.90;;;;;;5036003;28;20486;-73
2024/01/02 06:04:28;;;;;;;0.60;0.30;;;8.40;99.90;;;;;;5035814;28;20548;-72
2024/01/02 06:06:54;;;;;;;0.40;0.30;;;8.50;99.90;;;;;;5035025;28;20497;-71
2024/01/02 06:09:20;;;;;;;0.40;0.20;;;8.50;99.90;;;;;;5033225;28;20186;-70
2024/01/02 06:11:45;;;;;;;0.50;0.30;;;8.60;99.90;;;;;;5034408;28;20219;-71
2024/01/02 06:14:11;;;;;;;0.50;0.30;;;8.60;99.90;;;;;;5035750;28;20818;-71
2024/01/02 06:16:38;;;;;;;0.40;0.30;;;8.60;99.90;;;;;;5034660;28;20198;-72
2024/01/02 06:19:04;;;;;;;0.60;0.30;;;8.60;99.90;;;;;;5017944;28;20428;-75
2024/01/02 06:21:30;;;;;;;0.40;0.30;;;8.60;99.90;;;;;;5017390;28;20494;-73
2024/01/02 06:23:56;;;;;;;0.50;0.30;;;8.60;99.90;;;;;;5036594;28;20665;-71
2024/01/02 06:26:22;;;;;;;0.40;0.20;;;8.60;99.90;;;;;;5003465;28;20186;-75
2024/01/02 06:28:48;;;;;;;0.70;0.30;;;8.70;99.90;;;;;;5036015;28;20425;-73
2024/01/02 06:31:13;;;;;;;0.40;0.30;;;8.70;99.90;;;;;;5035650;28;20252;-75
2024/01/02 06:33:44;;;;;;;0.40;0.20;;;8.70;99.90;;;;;;5035057;28;20187;-71
2024/01/02 06:36:13;;;;;;;0.40;0.20;;;8.70;99.90;;;;;;5032373;28;20932;-73
2024/01/02 06:38:39;;;;;;;0.50;0.30;;;8.70;99.90;;;;;;5034366;28;20425;-71
2024/01/02 06:41:05;;;;;;;0.50;0.30;;;8.80;99.90;;;;;;5036460;28;20429;-75
2024/01/02 06:43:31;;;;;;;0.50;0.40;;;8.80;99.90;;;;;;5033881;28;20189;-74
2024/01/02 06:45:56;;;;;;;0.60;0.30;;;8.90;99.90;;;;;;5035379;28;20936;-75
2024/01/02 06:48:22;;;;;;;0.40;0.30;;;8.90;99.90;;;;;;5035145;28;20222;-75
2024/01/02 06:50:48;;;;;;;0.70;0.40;;;8.90;99.90;;;;;;5012975;28;20229;-75
2024/01/02 06:53:14;;;;;;;0.60;0.40;;;8.90;99.90;;;;;;5035826;28;20842;-73
2024/01/02 06:55:39;;;;;;;0.50;0.40;;;9.00;99.90;;;;;;5034089;28;20439;-74
2024/01/02 06:58:05;;;;;;;0.60;0.60;;;9.00;99.90;;;;;;5034454;28;20194;-76
2024/01/02 07:00:32;;;;;;;1.00;0.70;;;9.00;99.90;;;;;;5013374;28;20455;-75
2024/01/02 07:02:58;;;;;;;0.60;0.50;;;9.10;99.90;;;;;;5032916;28;20197;-74
2024/01/02 07:05:24;;;;;;;0.50;0.50;;;9.10;99.90;;;;;;5030161;28;21014;-75
2024/01/02 07:07:50;;;;;;;1.43;0.60;;;9.10;99.90;;;;;;5031372;28;20445;-73
2024/01/02 07:10:16;;;;;;;0.60;0.60;;;9.10;99.90;;;;;;5017775;28;20253;-75
2024/01/02 07:12:41;;;;;;;1.57;0.77;;;9.20;99.90;;;;;;5030059;28;20200;-73
2024/01/02 07:15:07;;;;;;;0.80;0.80;;;9.20;99.90;;;;;;5035508;28;20263;-71
2024/01/02 07:17:33;;;;;;;0.70;0.70;;;9.20;99.90;;;;;;5034925;28;20236;-71
2024/01/02 07:19:59;;;;;;;1.73;0.70;;;9.20;99.90;;;;;;5038327;28;20468;-72
2024/01/02 07:22:28;;;;;;;1.03;0.77;;;9.30;99.90;;;;;;5035734;28;20188;-73
2024/01/02 07:24:55;;;;;;;0.80;0.80;;;9.30;99.90;;;;;;5032898;28;20441;-73
2024/01/02 07:27:21;;;;;;;0.87;0.87;;;9.30;99.90;;;;;;5033173;28;20438;-72
2024/01/02 07:29:47;;;;;;;0.80;0.80;;;9.30;99.90;;;;;;5033055;28;20567;-71
2024/01/02 07:32:13;;;;;;;0.97;0.97;;;9.40;99.90;;;;;;5035803;28;21009;-71
2024/01/02 07:34:38;;;;;;;1.03;0.93;;;9.40;99.90;;;;;;5016235;28;20939;-72
2024/01/02 07:37:04;;;;;;;1.30;1.13;;;9.40;99.90;;;;;;5035113;28;20178;-69
2024/01/02 07:39:30;;;;;;;0.90;0.90;;;9.50;99.90;;;;;;5033263;28;20179;-73
2024/01/02 07:41:55;;;;;;;1.00;1.00;;;9.50;99.90;;;;;;5015602;28;20245;-73
2024/01/02 07:44:22;;;;;;;1.00;1.00;;;9.60;99.90;;;;;;5033701;28;20181;-70
2024/01/02 07:46:47;;;;;;;0.93;0.93;;;9.60;99.90;;;;;;5033403;28;20182;-72
2024/01/02 07:49:13;;;;;;;0.90;0.90;;;9.60;99.90;;;;;;5034549;28;20439;-73
2024/01/02 07:51:39;;;;;;;0.83;0.83;;;9.70;99.90;;;;;;5033057;28;20249;-69
2024/01/02 07:54:05;;;;;;;1.10;1.00;;;9.70;99.90;;;;;;5034664;28;20177;-73
2024/01/02 07:56:32;;;;;;;0.80;0.80;;;9.70;99.90;;;;;;5033013;28;20715;-71
2024/01/02 07:58:58;;;;;;;2.80;1.00;;;9.80;99.90;;;;;;5033974;28;20271;-74
2024/01/02 08:01:23;;;;;;;1.00;0.90;;;9.80;99.90;;;;;;5033708;28;20468;-72
2024/01/02 08:03:49;;;;;;;2.40;0.80;;;9.80;99.90;;;;;;5033774;28;20182;-75
2024/01/02 08:06:15;;;;;;;0.77;0.77;;;9.90;99.90;;;;;;5033956;28;20186;-70
2024/01/02 08:08:40;;;;;;;1.03;0.93;;;9.90;99.90;;;;;;5032779;28;21184;-74
2024/01/02 08:11:08;;;;;;;2.40;0.70;;;9.90;99.90;;;;;;5033343;28;20242;-70
2024/01/02 08:13:34;;;;;;;2.20;0.80;;;10.00;99.90;;;;;;5032832;28;20277;-71
2024/01/02 08:16:03;;;;;;;0.90;0.90;;;10.00;99.90;;;;;;5015507;28;20510;-69
2024/01/02 08:18:29;;;;;;;0.70;0.70;;;10.10;99.90;;;;;;5032700;28;20433;-71
2024/01/02 08:20:55;;;;;;;0.70;0.67;;;10.10;99.90;;;;;;5034163;28;20412;-73
2024/01/02 08:23:21;;;;;;;0.60;0.60;;;10.10;99.90;;;;;;5032912;28;20424;-73
2024/01/02 08:25:46;;;;;;;0.63;0.63;;;10.10;99.90;;;;;;5032722;28;20429;-72
2024/01/02 08:28:12;;;;;;;1.13;1.03;;;10.10;99.90;;;;;;5033569;28;20189;-74
2024/01/02 08:30:38;;;;;;;1.10;1.03;;;10.10;99.90;;;;;;5035834;28;20516;-73
2024/01/02 08:33:04;;;;;;;1.60;0.97;;;10.20;99.90;;;;;;5037922;28;20185;-73
2024/01/02 08:35:29;;;;;;;3.57;1.00;;;10.20;99.90;;;;;;5036699;28;20225;-73
2024/01/02 08:37:55;;;;;;;0.70;0.63;;;10.20;99.90;;;;;;5037705;28;20673;-71
2024/01/02 08:40:21;;;;;;;1.00;0.60;;;10.20;99.90;;;;;;5019183;28;20995;-72
2024/01/02 08:42:46;;;;;;;1.10;0.67;;;10.30;99.90;;;;;;5035819;28;20189;-75
2024/01/02 08:45:12;;;;;;;1.67;0.60;;;10.30;99.90;;;;;;5036843;28;20197;-72
2024/01/02 08:47:40;;;;;;;0.80;0.80;;;10.30;99.90;;;;;;5036320;28;20297;-71
2024/01/02 08:50:07;;;;;;;1.00;0.77;;;10.30;99.90;;;;;;5037361;28;20803;-72
2024/01/02 08:52:35;;;;;;;1.23;1.10;;;10.30;99.90;;;;;;5035960;28;20538;-70
2024/01/02 08:55:02;;;;;;;1.40;0.90;;;10.30;99.90;;;;;;5037225;28;20453;-73
2024/01/02 08:57:28;;;;;;;1.63;1.10;;;10.30;99.90;;;;;;5036507;28;20487;-69
2024/01/02 08:59:54;;;;;;;2.80;1.10;;;10.30;99.90;;;;;;5037401;28;20424;-71
2024/01/02 09:02:19;;;;;;;1.10;1.00;;;10.40;99.90;;;;;;5037217;28;20428;-71
2024/01/02 09:04:45;;;;;;;1.37;0.80;;;10.40;99.90;;;;;;5018783;28;20240;-74
2024/01/02 09:07:11;;;;;;;1.53;1.00;;;10.40;99.90;;;;;;5037055;28;20247;-74
2024/01/02 09:09:37;;;;;;;0.90;0.70;;;10.40;99.90;;;;;;5035632;28;20746;-71
2024/01/02 09:12:03;;;;;;;1.00;0.90;;;10.40;99.90;;;;;;5004189;28;20421;-72
2024/01/02 09:14:31;;;;;;;0.90;0.80;;;10.40;99.90;;;;;;5036045;28;20238;-70
2024/01/02 09:16:57;;;;;;;1.60;0.90;;;10.50;99.90;;;;;;5035652;28;20464;-74
2024/01/02 09:19:22;;;;;;;1.73;1.13;;;10.50;99.90;;;;;;5036387;28;20436;-72
2024/01/02 09:21:48;;;;;;;0.93;0.83;;;10.50;99.90;;;;;;5036221;28;20639;-75
2024/01/02 09:24:16;;;;;;;1.40;1.00;;;10.50;99.90;;;;;;5037180;28;20207;-71
2024/01/02 09:26:45;;;;;;;1.27;0.90;;;10.60;99.90;;;;;;5035039;28;20606;-70
2024/01/02 09:29:12;;;;;;;1.10;1.00;;;10.50;99.90;;;;;;5036697;28;20456;-70
2024/01/02 09:31:40;;;;;;;1.20;1.00;;;10.50;99.90;;;;;;5035120;28;20504;-71
2024/01/02 09:34:06;;;;;;;1.20;0.90;;;10.60;99.90;;;;;;5036516;28;20466;-72
2024/01/02 09:36:32;;;;;;;0.90;0.70;;;10.60;99.90;;;;;;5016683;28;20457;-72
2024/01/02 09:38:58;;;;;;;1.83;1.00;;;10.60;99.90;;;;;;5036191;28;20186;-72
2024/01/02 09:42:15;;;;;;;1.23;0.90;;;10.60;99.90;;;;;;5034864;28;20281;-70
2024/01/02 09:45:03;;;;;;;1.20;1.10;;;10.60;99.90;;;;;;5016902;28;20437;-75
2024/01/02 09:47:40;;;;;;;0.90;0.80;;;10.60;99.90;;;;;;5033984;28;20444;-71
2024/01/02 09:50:24;;;;;;;1.30;1.20;;;10.60;99.90;;;;;;5035065;28;20463;-75
2024/01/02 09:53:05;;;;;;;1.13;0.93;;;10.60;99.90;;;;;;5035384;28;20521;-72
2024/01/02 09:55:46;;;;;;;1.30;1.20;;;10.70;99.90;;;;;;5034801;28;20859;-73
2024/01/02 09:58:29;;;;;;;2.30;1.40;;;10.70;99.90;;;;;;5036696;28;20930;-75
2024/01/02 10:01:10;;;;;;;1.20;1.10;;;10.70;99.90;;;;;;5036295;28;20803;-71
2024/01/02 10:04:13;;;;;;;1.40;1.30;;;10.70;99.90;;;;;;5034896;28;20458;-72
2024/01/02 10:06:44;;;;;;;1.77;1.10;;;10.70;99.90;;;;;;5019186;28;20438;-72
2024/01/02 10:09:44;;;;;;;1.70;1.17;;;10.70;99.90;;;;;;5036330;28;20528;-75
2024/01/02 10:12:15;;;;;;;1.07;0.97;;;10.70;99.90;;;;;;5035661;28;20775;-71
2024/01/02 10:14:50;;;;;;;0.83;0.83;;;10.80;99.90;;;;;;5035234;28;20511;-73
2024/01/02 10:17:22;;;;;;;1.17;0.90;;;10.80;99.90;;;;;;5015661;28;20463;-74
2024/01/02 10:20:09;;;;;;;1.47;0.93;;;10.70;99.90;;;;;;5033584;28;20443;-72
2024/01/02 10:23:02;;;;;;;1.03;0.93;;;10.70;99.90;;;;;;5000383;28;21298;-71
2024/01/02 10:25:29;;;;;;;1.20;0.70;;;10.70;99.90;;;;;;5031505;28;20516;-75
2024/01/02 10:28:14;;;;;;;1.60;1.07;;;10.70;99.90;;;;;;5033622;28;20428;-72
2024/01/02 10:31:28;;;;;;;1.00;0.60;;;10.80;99.90;;;;;;5014564;28;20499;-69
2024/01/02 10:34:16;;;;;;;0.63;0.60;;;10.80;99.90;;;;;;5034103;28;20424;-72
2024/01/02 10:36:53;;;;;;;1.37;1.27;;;10.80;99.90;;;;;;5034653;28;20441;-74
2024/01/02 10:39:32;;;;;;;1.20;1.10;;;10.80;99.90;;;;;;5034654;28;20425;-74
2024/01/02 10:42:29;;;;;;;1.33;1.23;;;10.80;99.90;;;;;;5034815;28;20817;-74
2024/01/02 10:45:32;;;;;;;1.77;1.67;;;10.80;99.90;;;;;;5035000;28;20439;-71
2024/01/02 10:48:23;;;;;;;1.37;1.27;;;10.80;99.90;;;;;;5017212;28;20448;-74
2024/01/02 10:51:03;;;;;;;1.03;0.93;;;10.80;99.90;;;;;;5017789;28;20465;-74
2024/01/02 10:53:39;;;;;;;1.00;1.00;;;10.80;99.90;;;;;;5033265;28;20429;-70
2024/01/02 10:56:16;;;;;;;1.00;0.90;;;10.80;99.90;;;;;;5034788;28;21087;-74
2024/01/02 10:59:04;;;;;;;0.70;0.70;;;10.80;99.90;;;;;;5034591;28;20425;-71
2024/01/02 11:01:32;;;;;;;0.60;0.53;;;10.80;99.90;;;;;;5033600;28;20431;-70
2024/01/02 11:04:05;;;;;;;0.50;0.50;;;10.80;99.90;;;;;;5034976;28;20425;-76
2024/01/02 11:06:37;;;;;;;0.60;0.50;;;10.80;99.90;;;;;;5032965;28;20425;-74
2024/01/02 11:09:07;;;;;;;0.90;0.70;;;10.80;99.90;;;;;;5002602;28;20430;-73
2024/01/02 11:11:36;;;;;;;1.23;0.90;;;10.80;99.90;;;;;;5032636;28;20849;-70
2024/01/02 11:14:05;;;;;;;0.50;0.40;;;10.80;99.90;;;;;;5034488;28;20425;-71
2024/01/02 11:16:32;;;;;;;0.50;0.37;;;10.80;99.90;;;;;;5031446;28;20441;-70
2024/01/02 11:18:59;;;;;;;0.80;0.53;;;10.80;99.90;;;;;;5034952;28;20436;-73
2024/01/02 11:21:34;;;;;;;0.60;0.50;;;10.80;99.90;;;;;;5015278;28;20515;-74
2024/01/02 11:24:03;;;;;;;0.50;0.30;;;10.80;99.90;;;;;;5034069;28;20961;-72
2024/01/02 11:26:40;;;;;;;0.53;0.50;;;10.80;99.90;;;;;;5001575;28;20436;-72
2024/01/02 11:29:13;;;;;;;0.60;0.40;;;10.80;99.90;;;;;;5033782;28;20419;-74
2024/01/02 11:31:41;;;;;;;0.50;0.40;;;10.80;99.90;;;;;;5034314;28;20571;-75
2024/01/02 11:34:36;;;;;;;0.60;0.53;;;10.80;99.90;;;;;;5035182;28;20432;-76
2024/01/02 11:37:32;;;;;;;0.67;0.50;;;10.90;99.90;;;;;;5015541;28;20444;-74
2024/01/02 11:40:16;;;;;;;0.70;0.40;;;10.90;99.90;;;;;;5035297;28;20420;-74
2024/01/02 11:42:51;;;;;;;0.60;0.40;;;10.80;99.90;;;;;;5035042;28;20529;-70
2024/01/02 11:45:20;;;;;;;0.70;0.53;;;10.90;99.90;;;;;;5033966;28;20442;-72
2024/01/02 11:48:01;;;;;;;0.80;0.50;;;10.90;99.90;;;;;;5017874;28;20843;-74
2024/01/02 11:50:41;;;;;;;0.40;0.37;;;10.80;99.90;;;;;;4985031;28;20475;-71
2024/01/02 11:53:16;;;;;;;0.50;0.30;;;10.90;99.90;;;;;;5034510;28;20432;-73
2024/01/02 11:56:08;;;;;;;1.47;0.60;;;10.90;99.90;;;;;;5034874;28;20468;-72
2024/01/02 11:58:37;;;;;;;0.90;0.50;;;10.90;99.90;;;;;;5021270;28;20433;-75
2024/01/02 12:01:31;;;;;;;0.70;0.60;;;10.90;99.90;;;;;;5034141;28;20439;-71
2024/01/02 12:04:14;;;;;;;0.70;0.60;;;10.90;99.90;;;;;;5034333;28;20424;-75
2024/01/02 12:06:52;;;;;;;0.60;0.50;;;10.90;99.90;;;;;;5033594;28;20765;-76
2024/01/02 12:09:19;;;;;;;1.60;0.60;;;10.80;99.90;;;;;;5033710;28;20424;-74
2024/01/02 12:12:23;;;;;;;1.20;0.50;;;10.80;99.90;;;;;;5033299;28;20483;-72
2024/01/02 12:15:15;;;;;;;0.93;0.60;;;10.80;99.90;;;;;;5016854;28;20426;-71
2024/01/02 12:18:03;;;;;;;0.67;0.67;;;10.90;99.90;;;;;;5033706;28;20488;-72
2024/01/02 12:20:46;;;;;;;1.13;1.03;;;10.80;99.90;;;;;;5033740;28;20432;-72
2024/01/02 12:23:13;;;;;;;0.87;0.87;;;10.80;99.90;;;;;;5015713;28;20970;-74
2024/01/02 12:25:43;;;;;;;1.20;1.10;;;10.80;99.90;;;;;;5016072;28;20787;-73
2024/01/02 12:28:11;;;;;;;1.33;1.07;;;10.80;99.90;;;;;;5033130;28;20452;-71
2024/01/02 12:30:47;;;;;;;1.23;1.13;;;10.80;99.90;;;;;;5033921;28;20468;-71
2024/01/02 12:33:35;;;;;;;1.30;1.20;;;10.70;99.90;;;;;;5033759;28;20433;-74
2024/01/02 12:36:16;;;;;;;1.00;0.80;;;10.70;99.90;;;;;;5032935;28;20484;-73
2024/01/02 12:38:51;;;;;;;2.60;1.00;;;10.70;99.90;;;;;;5034138;28;20432;-75
2024/01/02 12:41:35;;;;;;;0.70;0.70;;;10.70;99.90;;;;;;5033379;28;20527;-72
2024/01/02 12:44:03;;;;;;;0.80;0.70;;;10.70;99.90;;;;;;5033894;28;20471;-71
2024/01/02 12:46:50;;;;;;;1.10;0.50;;;10.60;99.90;;;;;;5032749;28;20552;-72
2024/01/02 12:49:29;;;;;;;0.73;0.70;;;10.60;99.90;;;;;;5031282;28;20432;-76
2024/01/02 12:52:02;;;;;;;0.80;0.70;;;10.50;99.90;;;;;;5033116;28;20471;-75
2024/01/02 12:54:29;;;;;;;1.90;0.60;;;10.50;99.90;;;;;;5033180;28;20689;-73
2024/01/02 12:57:03;;;;;;;0.57;0.50;;;10.60;99.90;;;;;;5033053;28;20460;-73
2024/01/02 12:59:32;;;;;;;0.80;0.60;;;10.50;99.90;;;;;;5033676;28;21471;-74
2024/01/02 13:01:58;;;;;;;1.27;0.73;;;10.50;99.90;;;;;;5033913;28;20478;-71
2024/01/02 13:04:27;;;;;;;0.87;0.50;;;10.50;99.90;;;;;;5033137;28;20437;-73